createdAt,value
2017-02-14T00:00:12.461Z,19.08
2017-02-14T00:01:13.117Z,19.08
2017-02-14T00:02:13.308Z,19.08
2017-02-14T00:03:13.049Z,19.08
2017-02-14T00:04:12.464Z,19.07
2017-02-14T00:05:12.288Z,19.07
2017-02-14T00:06:12.298Z,19.07
2017-02-14T00:07:12.275Z,19.07
2017-02-14T00:08:12.446Z,19.08
2017-02-14T00:09:13.279Z,19.07
2017-02-14T00:10:12.477Z,19.06
2017-02-14T00:11:13.572Z,19.07
2017-02-14T00:12:16.526Z,19.07
2017-02-14T00:13:12.557Z,19.07
2017-02-14T00:14:12.596Z,19.07
2017-02-14T00:15:12.409Z,19.07
2017-02-14T00:16:11.150Z,19.07
2017-02-14T00:17:12.644Z,19.07
2017-02-14T00:18:17.776Z,19.07
2017-02-14T00:19:11.779Z,19.06
2017-02-14T00:20:12.413Z,19.11
2017-02-14T00:21:12.732Z,19.07
2017-02-14T00:22:11.957Z,19.07
2017-02-14T00:23:12.083Z,19.07
2017-02-14T00:24:12.226Z,19.07
2017-02-14T00:25:12.964Z,19.07
2017-02-14T00:26:12.070Z,19.07
2017-02-14T00:27:12.545Z,19.13
2017-02-14T00:28:13.199Z,19.13
2017-02-14T00:29:12.865Z,19.07
2017-02-14T00:30:11.986Z,19.07
2017-02-14T00:31:12.490Z,19.12
2017-02-14T00:32:14.210Z,19.06
2017-02-14T00:33:12.744Z,19.07
2017-02-14T00:34:11.895Z,19.07
2017-02-14T00:35:11.914Z,19.07
2017-02-14T00:36:12.049Z,19.06
2017-02-14T00:37:12.015Z,19.07
2017-02-14T00:38:12.496Z,19.11
2017-02-14T00:39:12.288Z,19.07
2017-02-14T00:40:12.477Z,19.06
2017-02-14T00:41:14.980Z,19.07
2017-02-14T00:42:14.506Z,19.07
2017-02-14T00:43:14.828Z,19.07
2017-02-14T00:44:13.595Z,19.06
2017-02-14T00:45:12.429Z,19.07
2017-02-14T00:46:11.876Z,19.07
2017-02-14T00:47:12.810Z,19.07
2017-02-14T00:48:12.708Z,19.07
2017-02-14T00:49:09.191Z,19.07
2017-02-14T00:50:14.831Z,19.06
2017-02-14T00:51:12.139Z,19.07
2017-02-14T00:52:13.065Z,19.07
2017-02-14T00:53:13.297Z,19.06
2017-02-14T00:54:12.997Z,19.10
2017-02-14T00:55:12.049Z,19.59
2017-02-14T00:56:10.675Z,19.66
2017-02-14T00:57:13.646Z,19.70
2017-02-14T00:58:11.785Z,19.71
2017-02-14T00:59:11.801Z,19.72
2017-02-14T01:00:12.407Z,19.40
2017-02-14T01:01:13.022Z,19.19
2017-02-14T01:02:12.616Z,19.13
2017-02-14T01:03:15.826Z,19.13
2017-02-14T01:04:14.274Z,19.09
2017-02-14T01:05:12.456Z,19.08
2017-02-14T01:06:13.791Z,19.08
2017-02-14T01:07:13.814Z,19.08
2017-02-14T01:08:14.769Z,19.07
2017-02-14T01:09:13.277Z,19.07
2017-02-14T01:10:13.168Z,19.07
2017-02-14T01:11:14.281Z,19.07
2017-02-14T01:12:14.052Z,19.15
2017-02-14T01:13:12.193Z,19.07
2017-02-14T01:14:13.113Z,19.07
2017-02-14T01:15:14.414Z,19.07
2017-02-14T01:16:14.637Z,19.07
2017-02-14T01:17:14.437Z,19.07
2017-02-14T01:18:17.909Z,19.06
2017-02-14T01:19:13.745Z,19.06
2017-02-14T01:20:10.577Z,19.06
2017-02-14T01:21:15.203Z,19.61
2017-02-14T01:22:13.157Z,19.66
2017-02-14T01:23:13.765Z,19.69
2017-02-14T01:24:15.011Z,19.71
2017-02-14T01:25:13.772Z,19.72
2017-02-14T01:26:14.792Z,19.18
2017-02-14T01:27:11.992Z,19.14
2017-02-14T01:28:13.875Z,19.11
2017-02-14T01:29:11.827Z,19.10
2017-02-14T01:30:12.556Z,19.09
2017-02-14T01:31:12.732Z,19.08
2017-02-14T01:32:11.712Z,19.07
2017-02-14T01:33:14.564Z,19.07
2017-02-14T01:34:13.152Z,19.07
2017-02-14T01:35:09.511Z,19.07
2017-02-14T01:36:14.021Z,19.07
2017-02-14T01:37:12.232Z,19.07
2017-02-14T01:38:12.938Z,19.07
2017-02-14T01:39:10.483Z,19.07
2017-02-14T01:40:11.884Z,19.07
2017-02-14T01:41:11.971Z,19.08
2017-02-14T01:42:12.944Z,19.12
2017-02-14T01:43:13.263Z,19.07
2017-02-14T01:44:14.396Z,19.07
2017-02-14T01:45:14.072Z,19.09
2017-02-14T01:46:13.005Z,19.07
2017-02-14T01:47:13.192Z,19.07
2017-02-14T01:48:10.604Z,19.06
2017-02-14T01:49:12.705Z,19.07
2017-02-14T01:50:10.584Z,19.06
2017-02-14T01:51:14.356Z,19.61
2017-02-14T01:52:12.364Z,19.66
2017-02-14T01:53:14.610Z,19.69
2017-02-14T01:54:13.010Z,19.71
2017-02-14T01:55:13.721Z,19.18
2017-02-14T01:56:09.412Z,19.12
2017-02-14T01:57:10.545Z,19.10
2017-02-14T01:58:12.094Z,19.09
2017-02-14T01:59:15.274Z,19.08
2017-02-14T02:00:12.918Z,19.17
2017-02-14T02:01:13.117Z,19.07
2017-02-14T02:02:12.583Z,19.11
2017-02-14T02:03:12.277Z,19.07
2017-02-14T02:04:13.147Z,19.07
2017-02-14T02:05:12.718Z,19.12
2017-02-14T02:06:13.586Z,19.06
2017-02-14T02:07:13.226Z,19.06
2017-02-14T02:08:12.783Z,19.06
2017-02-14T02:09:11.857Z,19.07
2017-02-14T02:10:13.223Z,19.05
2017-02-14T02:11:13.653Z,19.13
2017-02-14T02:12:14.270Z,19.06
2017-02-14T02:13:12.713Z,19.12
2017-02-14T02:14:12.566Z,19.07
2017-02-14T02:15:12.461Z,19.06
2017-02-14T02:16:12.814Z,19.06
2017-02-14T02:17:12.099Z,19.06
2017-02-14T02:18:10.779Z,19.06
2017-02-14T02:19:13.667Z,19.60
2017-02-14T02:20:12.495Z,19.68
2017-02-14T02:21:14.171Z,19.68
2017-02-14T02:22:13.154Z,19.71
2017-02-14T02:23:14.861Z,19.71
2017-02-14T02:24:12.049Z,19.37
2017-02-14T02:25:12.105Z,19.18
2017-02-14T02:26:10.688Z,19.13
2017-02-14T02:27:14.344Z,19.27
2017-02-14T02:28:12.697Z,19.15
2017-02-14T02:29:12.480Z,19.11
2017-02-14T02:30:13.274Z,19.12
2017-02-14T02:31:12.459Z,19.08
2017-02-14T02:32:11.217Z,19.07
2017-02-14T02:33:13.176Z,19.14
2017-02-14T02:34:12.514Z,19.11
2017-02-14T02:35:12.554Z,19.06
2017-02-14T02:36:13.077Z,19.07
2017-02-14T02:37:12.452Z,19.06
2017-02-14T02:38:12.887Z,19.08
2017-02-14T02:39:12.647Z,19.06
2017-02-14T02:40:12.456Z,19.11
2017-02-14T02:41:14.316Z,19.07
2017-02-14T02:42:14.174Z,19.07
2017-02-14T02:43:10.574Z,19.06
2017-02-14T02:44:13.592Z,19.06
2017-02-14T02:45:12.444Z,19.06
2017-02-14T02:46:13.064Z,19.06
2017-02-14T02:47:13.048Z,19.09
2017-02-14T02:48:12.897Z,19.06
2017-02-14T02:49:11.624Z,19.06
2017-02-14T02:50:13.328Z,19.05
2017-02-14T02:51:13.110Z,19.06
2017-02-14T02:52:12.642Z,19.06
2017-02-14T02:53:12.452Z,19.05
2017-02-14T02:54:12.810Z,19.06
2017-02-14T02:55:12.898Z,19.10
2017-02-14T02:56:12.911Z,19.06
2017-02-14T02:57:12.950Z,19.06
2017-02-14T02:58:12.934Z,19.06
2017-02-14T02:59:13.383Z,19.06
2017-02-14T03:00:14.125Z,19.05
2017-02-14T03:01:13.024Z,19.05
2017-02-14T03:02:14.433Z,19.06
2017-02-14T03:03:14.344Z,19.06
2017-02-14T03:04:13.208Z,19.58
2017-02-14T03:05:10.776Z,19.65
2017-02-14T03:06:11.990Z,19.69
2017-02-14T03:07:12.141Z,19.70
2017-02-14T03:08:12.262Z,19.71
2017-02-14T03:09:12.693Z,19.72
2017-02-14T03:10:13.452Z,19.35
2017-02-14T03:11:15.988Z,19.18
2017-02-14T03:12:14.325Z,19.13
2017-02-14T03:13:12.592Z,19.10
2017-02-14T03:14:12.467Z,19.08
2017-02-14T03:15:09.689Z,19.07
2017-02-14T03:16:12.783Z,19.07
2017-02-14T03:17:10.612Z,19.06
2017-02-14T03:18:12.324Z,19.60
2017-02-14T03:19:13.189Z,19.66
2017-02-14T03:20:09.383Z,19.68
2017-02-14T03:21:13.002Z,19.72
2017-02-14T03:22:14.765Z,19.71
2017-02-14T03:23:12.593Z,19.73
2017-02-14T03:24:12.446Z,19.18
2017-02-14T03:25:13.559Z,19.12
2017-02-14T03:26:14.295Z,19.09
2017-02-14T03:27:10.823Z,19.07
2017-02-14T03:28:19.699Z,19.07
2017-02-14T03:29:11.643Z,19.06
2017-02-14T03:30:13.086Z,19.06
2017-02-14T03:31:10.954Z,19.06
2017-02-14T03:32:12.933Z,19.12
2017-02-14T03:33:11.974Z,19.06
2017-02-14T03:34:13.047Z,19.06
2017-02-14T03:35:12.371Z,19.06
2017-02-14T03:36:13.428Z,19.06
2017-02-14T03:37:13.366Z,19.06
2017-02-14T03:38:12.524Z,19.06
2017-02-14T03:39:12.631Z,19.05
2017-02-14T03:40:11.604Z,19.06
2017-02-14T03:41:11.793Z,19.06
2017-02-14T03:42:10.972Z,19.05
2017-02-14T03:43:13.043Z,19.59
2017-02-14T03:44:13.678Z,19.65
2017-02-14T03:45:11.716Z,19.31
2017-02-14T03:46:12.851Z,19.15
2017-02-14T03:47:11.980Z,19.11
2017-02-14T03:48:12.689Z,19.08
2017-02-14T03:49:12.544Z,19.07
2017-02-14T03:50:13.258Z,19.06
2017-02-14T03:51:12.262Z,19.06
2017-02-14T03:52:13.912Z,19.06
2017-02-14T03:53:12.085Z,19.06
2017-02-14T03:54:13.511Z,19.05
2017-02-14T03:55:13.972Z,19.06
2017-02-14T03:56:12.098Z,19.06
2017-02-14T03:57:12.725Z,19.12
2017-02-14T03:58:12.089Z,19.06
2017-02-14T03:59:12.102Z,19.05
2017-02-14T04:00:12.672Z,19.11
2017-02-14T04:01:12.164Z,19.08
2017-02-14T04:02:12.660Z,19.11
2017-02-14T04:03:10.085Z,19.05
2017-02-14T04:04:12.913Z,19.08
2017-02-14T04:05:13.314Z,19.08
2017-02-14T04:06:13.533Z,19.25
2017-02-14T04:07:13.350Z,19.11
2017-02-14T04:08:13.383Z,19.08
2017-02-14T04:09:12.692Z,19.07
2017-02-14T04:10:10.069Z,19.05
2017-02-14T04:11:12.785Z,19.10
2017-02-14T04:12:12.086Z,19.05
2017-02-14T04:13:09.343Z,19.05
2017-02-14T04:14:12.430Z,19.05
2017-02-14T04:15:13.100Z,19.12
2017-02-14T04:16:12.148Z,19.06
2017-02-14T04:17:14.975Z,19.05
2017-02-14T04:18:12.695Z,19.05
2017-02-14T04:19:13.482Z,19.05
2017-02-14T04:20:13.675Z,19.05
2017-02-14T04:21:12.100Z,19.07
2017-02-14T04:22:12.091Z,19.06
2017-02-14T04:23:12.087Z,19.05
2017-02-14T04:24:13.792Z,19.05
2017-02-14T04:25:12.292Z,19.05
2017-02-14T04:26:13.565Z,19.05
2017-02-14T04:27:10.694Z,19.05
2017-02-14T04:28:13.103Z,19.05
2017-02-14T04:29:13.026Z,19.05
2017-02-14T04:30:12.441Z,19.06
2017-02-14T04:31:11.592Z,19.06
2017-02-14T04:32:11.608Z,19.06
2017-02-14T04:33:12.363Z,19.05
2017-02-14T04:34:12.461Z,19.05
2017-02-14T04:35:12.483Z,19.05
2017-02-14T04:36:12.625Z,19.05
2017-02-14T04:37:13.315Z,19.11
2017-02-14T04:38:12.962Z,19.05
2017-02-14T04:39:12.069Z,19.05
2017-02-14T04:40:18.223Z,19.05
2017-02-14T04:41:12.283Z,19.06
2017-02-14T04:42:13.275Z,19.06
2017-02-14T04:43:12.674Z,19.10
2017-02-14T04:44:12.497Z,19.06
2017-02-14T04:45:13.088Z,19.11
2017-02-14T04:46:13.096Z,19.06
2017-02-14T04:47:13.005Z,19.05
2017-02-14T04:48:12.085Z,19.05
2017-02-14T04:49:12.680Z,19.06
2017-02-14T04:50:13.295Z,19.06
2017-02-14T04:51:11.111Z,19.06
2017-02-14T04:52:12.589Z,19.59
2017-02-14T04:53:11.565Z,19.65
2017-02-14T04:54:12.496Z,19.68
2017-02-14T04:55:12.507Z,19.69
2017-02-14T04:56:12.453Z,19.70
2017-02-14T04:57:14.251Z,19.71
2017-02-14T04:58:12.986Z,19.34
2017-02-14T04:59:10.806Z,19.17
2017-02-14T05:00:13.005Z,19.15
2017-02-14T05:01:12.626Z,19.10
2017-02-14T05:02:13.357Z,19.08
2017-02-14T05:03:12.608Z,19.07
2017-02-14T05:04:10.545Z,19.06
2017-02-14T05:05:12.431Z,19.59
2017-02-14T05:06:12.810Z,19.66
2017-02-14T05:07:12.458Z,19.68
2017-02-14T05:08:12.956Z,19.70
2017-02-14T05:09:12.967Z,19.71
2017-02-14T05:10:10.667Z,19.72
2017-02-14T05:11:15.530Z,19.33
2017-02-14T05:12:13.785Z,19.18
2017-02-14T05:13:12.666Z,19.12
2017-02-14T05:14:08.903Z,19.09
2017-02-14T05:15:13.611Z,19.14
2017-02-14T05:16:12.202Z,19.08
2017-02-14T05:17:14.010Z,19.06
2017-02-14T05:18:13.797Z,19.06
2017-02-14T05:19:12.401Z,19.07
2017-02-14T05:20:12.486Z,19.05
2017-02-14T05:21:10.002Z,19.05
2017-02-14T05:22:13.034Z,19.07
2017-02-14T05:23:12.679Z,19.05
2017-02-14T05:24:10.480Z,19.06
2017-02-14T05:25:17.264Z,19.06
2017-02-14T05:26:17.125Z,19.05
2017-02-14T05:27:13.617Z,19.05
2017-02-14T05:28:13.952Z,19.05
2017-02-14T05:29:13.661Z,19.05
2017-02-14T05:30:11.586Z,19.05
2017-02-14T05:31:11.774Z,19.06
2017-02-14T05:32:12.428Z,19.11
2017-02-14T05:33:13.946Z,19.06
2017-02-14T05:34:12.533Z,19.13
2017-02-14T05:35:11.646Z,19.05
2017-02-14T05:36:12.907Z,19.11
2017-02-14T05:37:12.735Z,19.06
2017-02-14T05:38:13.651Z,19.05
2017-02-14T05:39:11.850Z,19.06
2017-02-14T05:40:12.922Z,19.06
2017-02-14T05:41:11.864Z,19.06
2017-02-14T05:42:13.525Z,19.13
2017-02-14T05:43:13.147Z,19.05
2017-02-14T05:44:12.154Z,19.06
2017-02-14T05:45:12.854Z,19.06
2017-02-14T05:46:12.552Z,19.06
2017-02-14T05:47:13.678Z,19.06
2017-02-14T05:48:12.003Z,19.06
2017-02-14T05:49:12.127Z,19.06
2017-02-14T05:50:13.174Z,19.07
2017-02-14T05:51:12.776Z,19.09
2017-02-14T05:52:12.535Z,19.58
2017-02-14T05:53:12.516Z,19.66
2017-02-14T05:54:13.316Z,19.69
2017-02-14T05:55:13.990Z,19.70
2017-02-14T05:56:11.906Z,19.72
2017-02-14T05:57:12.654Z,19.18
2017-02-14T05:58:11.779Z,19.13
2017-02-14T05:59:12.788Z,19.10
2017-02-14T06:00:13.224Z,19.09
2017-02-14T06:01:12.947Z,19.10
2017-02-14T06:02:12.205Z,19.04
2017-02-14T06:03:12.323Z,19.01
2017-02-14T06:04:13.087Z,18.97
2017-02-14T06:05:13.583Z,18.94
2017-02-14T06:06:11.591Z,18.91
2017-02-14T06:07:11.716Z,18.89
2017-02-14T06:08:11.637Z,18.88
2017-02-14T06:09:12.706Z,18.89
2017-02-14T06:10:08.875Z,18.87
2017-02-14T06:11:13.400Z,18.86
2017-02-14T06:12:11.679Z,18.85
2017-02-14T06:13:13.766Z,18.83
2017-02-14T06:14:11.793Z,18.82
2017-02-14T06:15:13.309Z,18.80
2017-02-14T06:16:12.600Z,18.78
2017-02-14T06:17:13.590Z,18.77
2017-02-14T06:18:12.109Z,18.78
2017-02-14T06:19:12.207Z,18.75
2017-02-14T06:20:13.233Z,18.75
2017-02-14T06:21:12.628Z,18.74
2017-02-14T06:22:13.599Z,18.74
2017-02-14T06:23:12.501Z,18.73
2017-02-14T06:24:12.600Z,18.72
2017-02-14T06:25:12.314Z,18.71
2017-02-14T06:26:14.089Z,18.71
2017-02-14T06:27:11.196Z,18.70
2017-02-14T06:28:13.451Z,19.24
2017-02-14T06:29:12.537Z,19.28
2017-02-14T06:30:11.945Z,18.86
2017-02-14T06:31:11.917Z,18.75
2017-02-14T06:32:10.679Z,18.72
2017-02-14T06:33:13.862Z,19.24
2017-02-14T06:34:13.635Z,19.28
2017-02-14T06:35:12.503Z,19.31
2017-02-14T06:36:12.671Z,19.32
2017-02-14T06:37:12.455Z,19.32
2017-02-14T06:38:12.786Z,19.32
2017-02-14T06:39:10.750Z,19.30
2017-02-14T06:40:12.443Z,19.34
2017-02-14T06:41:12.499Z,19.34
2017-02-14T06:42:13.023Z,19.34
2017-02-14T06:43:11.206Z,18.81
2017-02-14T06:44:13.217Z,18.76
2017-02-14T06:45:12.568Z,18.73
2017-02-14T06:46:12.326Z,18.71
2017-02-14T06:47:13.021Z,18.70
2017-02-14T06:48:12.099Z,18.70
2017-02-14T06:49:12.840Z,18.69
2017-02-14T06:50:12.294Z,18.74
2017-02-14T06:51:12.777Z,18.75
2017-02-14T06:52:12.404Z,18.68
2017-02-14T06:53:11.873Z,18.67
2017-02-14T06:54:12.138Z,18.67
2017-02-14T06:55:14.039Z,18.67
2017-02-14T06:56:12.825Z,18.67
2017-02-14T06:57:13.022Z,18.68
2017-02-14T06:58:12.327Z,18.69
2017-02-14T06:59:13.924Z,18.75
2017-02-14T07:00:12.802Z,19.21
2017-02-14T07:01:11.888Z,19.26
2017-02-14T07:02:12.769Z,19.29
2017-02-14T07:03:11.915Z,18.95
2017-02-14T07:04:12.981Z,18.78
2017-02-14T07:05:12.713Z,18.75
2017-02-14T07:06:12.312Z,18.70
2017-02-14T07:07:13.161Z,18.70
2017-02-14T07:08:13.571Z,18.70
2017-02-14T07:09:12.214Z,18.76
2017-02-14T07:10:13.062Z,18.69
2017-02-14T07:11:12.371Z,18.69
2017-02-14T07:12:14.389Z,18.68
2017-02-14T07:13:12.556Z,18.68
2017-02-14T07:14:10.567Z,18.67
2017-02-14T07:15:12.462Z,19.21
2017-02-14T07:16:12.674Z,19.26
2017-02-14T07:17:12.436Z,19.28
2017-02-14T07:18:13.137Z,19.31
2017-02-14T07:19:13.908Z,19.31
2017-02-14T07:20:12.698Z,19.32
2017-02-14T07:21:10.466Z,19.32
2017-02-14T07:22:12.461Z,19.32
2017-02-14T07:23:13.256Z,19.32
2017-02-14T07:24:12.988Z,18.80
2017-02-14T07:25:12.666Z,18.78
2017-02-14T07:26:12.295Z,18.71
2017-02-14T07:27:13.174Z,18.70
2017-02-14T07:28:12.340Z,18.69
2017-02-14T07:29:12.478Z,18.68
2017-02-14T07:30:13.269Z,18.69
2017-02-14T07:31:12.449Z,18.69
2017-02-14T07:32:13.117Z,18.68
2017-02-14T07:33:12.866Z,18.68
2017-02-14T07:34:12.446Z,18.70
2017-02-14T07:35:12.474Z,18.68
2017-02-14T07:36:15.034Z,18.68
2017-02-14T07:37:12.684Z,18.70
2017-02-14T07:38:11.070Z,18.67
2017-02-14T07:39:12.082Z,18.68
2017-02-14T07:40:12.162Z,18.67
2017-02-14T07:41:11.691Z,18.67
2017-02-14T07:42:12.494Z,18.73
2017-02-14T07:43:12.454Z,18.67
2017-02-14T07:44:12.446Z,18.68
2017-02-14T07:45:12.583Z,18.68
2017-02-14T07:46:12.479Z,18.67
2017-02-14T07:47:13.282Z,18.67
2017-02-14T07:48:12.465Z,18.67
2017-02-14T07:49:13.345Z,18.69
2017-02-14T07:50:13.115Z,18.67
2017-02-14T07:51:12.885Z,18.67
2017-02-14T07:52:12.145Z,18.67
2017-02-14T07:53:12.475Z,18.69
2017-02-14T07:54:13.360Z,18.67
2017-02-14T07:55:12.436Z,18.67
2017-02-14T07:56:11.098Z,18.66
2017-02-14T07:57:10.498Z,19.20
2017-02-14T07:58:11.956Z,19.26
2017-02-14T07:59:11.966Z,18.75
2017-02-14T08:00:12.676Z,18.72
2017-02-14T08:01:12.791Z,18.69
2017-02-14T08:02:12.030Z,18.68
2017-02-14T08:03:13.782Z,18.68
2017-02-14T08:04:13.557Z,18.67
2017-02-14T08:05:11.538Z,18.68
2017-02-14T08:06:13.014Z,18.70
2017-02-14T08:07:12.135Z,18.67
2017-02-14T08:08:11.274Z,18.66
2017-02-14T08:09:12.495Z,19.20
2017-02-14T08:10:13.653Z,19.25
2017-02-14T08:11:12.742Z,19.27
2017-02-14T08:12:12.368Z,18.95
2017-02-14T08:13:13.335Z,18.76
2017-02-14T08:14:14.073Z,18.71
2017-02-14T08:15:13.850Z,18.69
2017-02-14T08:16:11.836Z,18.68
2017-02-14T08:17:12.813Z,18.67
2017-02-14T08:18:13.744Z,18.67
2017-02-14T08:19:11.782Z,18.66
2017-02-14T08:20:11.958Z,18.67
2017-02-14T08:21:12.793Z,18.68
2017-02-14T08:22:12.503Z,18.67
2017-02-14T08:23:11.486Z,18.67
2017-02-14T08:24:11.240Z,18.66
2017-02-14T08:25:12.525Z,18.66
2017-02-14T08:26:11.585Z,18.66
2017-02-14T08:27:11.606Z,18.66
2017-02-14T08:28:13.557Z,18.66
2017-02-14T08:29:11.654Z,18.66
2017-02-14T08:30:11.979Z,18.66
2017-02-14T08:31:11.079Z,18.65
2017-02-14T08:32:14.300Z,18.66
2017-02-14T08:33:13.615Z,18.66
2017-02-14T08:34:12.964Z,18.65
2017-02-14T08:35:12.824Z,18.66
2017-02-14T08:36:13.421Z,18.66
2017-02-14T08:37:11.004Z,18.65
2017-02-14T08:38:13.436Z,18.65
2017-02-14T08:39:12.760Z,18.70
2017-02-14T08:40:13.158Z,18.65
2017-02-14T08:41:12.681Z,18.65
2017-02-14T08:42:11.793Z,18.66
2017-02-14T08:43:12.085Z,18.66
2017-02-14T08:44:12.964Z,18.65
2017-02-14T08:45:12.130Z,18.66
2017-02-14T08:46:10.709Z,18.65
2017-02-14T08:47:12.265Z,18.66
2017-02-14T08:48:12.462Z,18.66
2017-02-14T08:49:12.504Z,18.66
2017-02-14T08:50:12.510Z,18.67
2017-02-14T08:51:12.505Z,18.67
2017-02-14T08:52:14.445Z,18.67
2017-02-14T08:53:12.473Z,18.66
2017-02-14T08:54:14.291Z,18.67
2017-02-14T08:55:13.586Z,18.66
2017-02-14T08:56:12.335Z,18.69
2017-02-14T08:57:12.274Z,18.66
2017-02-14T08:58:12.533Z,18.67
2017-02-14T08:59:11.516Z,18.67
2017-02-14T09:00:14.331Z,18.67
2017-02-14T09:01:13.081Z,18.69
2017-02-14T09:02:09.667Z,18.67
2017-02-14T09:03:12.475Z,18.68
2017-02-14T09:04:13.044Z,18.69
2017-02-14T09:05:12.287Z,18.69
2017-02-14T09:06:13.097Z,18.71
2017-02-14T09:07:13.069Z,18.69
2017-02-14T09:08:12.099Z,18.69
2017-02-14T09:09:12.995Z,18.68
2017-02-14T09:10:12.092Z,18.68
2017-02-14T09:11:12.955Z,18.68
2017-02-14T09:12:13.011Z,18.69
2017-02-14T09:13:13.915Z,18.68
2017-02-14T09:14:12.098Z,18.69
2017-02-14T09:15:13.734Z,18.68
2017-02-14T09:16:11.826Z,18.69
2017-02-14T09:17:10.619Z,18.68
2017-02-14T09:18:12.390Z,18.69
2017-02-14T09:19:14.256Z,18.68
2017-02-14T09:20:10.926Z,18.68
2017-02-14T09:21:12.762Z,18.69
2017-02-14T09:22:12.013Z,18.69
2017-02-14T09:23:12.101Z,18.69
2017-02-14T09:24:12.247Z,18.69
2017-02-14T09:25:13.876Z,18.70
2017-02-14T09:26:13.193Z,18.69
2017-02-14T09:27:13.855Z,18.70
2017-02-14T09:28:12.091Z,18.69
2017-02-14T09:29:12.826Z,18.69
2017-02-14T09:30:11.763Z,18.70
2017-02-14T09:31:11.675Z,18.69
2017-02-14T09:32:12.477Z,18.70
2017-02-14T09:33:12.563Z,18.69
2017-02-14T09:34:11.766Z,18.70
2017-02-14T09:35:13.490Z,18.71
2017-02-14T09:36:12.492Z,18.69
2017-02-14T09:37:12.679Z,18.70
2017-02-14T09:38:11.830Z,18.70
2017-02-14T09:39:12.706Z,18.66
2017-02-14T09:40:11.564Z,17.90
2017-02-14T09:41:13.202Z,17.04
2017-02-14T09:42:13.211Z,15.76
2017-02-14T09:43:13.621Z,14.60
2017-02-14T09:44:13.629Z,14.03
2017-02-14T09:45:11.252Z,14.16
2017-02-14T09:46:12.732Z,14.46
2017-02-14T09:47:11.854Z,14.42
2017-02-14T09:48:12.100Z,14.89
2017-02-14T09:49:13.060Z,15.45
2017-02-14T09:50:12.609Z,15.94
2017-02-14T09:51:12.307Z,16.36
2017-02-14T09:52:12.693Z,16.72
2017-02-14T09:53:11.696Z,16.99
2017-02-14T09:54:12.580Z,17.24
2017-02-14T09:55:12.040Z,17.43
2017-02-14T09:56:12.088Z,17.60
2017-02-14T09:57:14.875Z,17.74
2017-02-14T09:58:12.104Z,17.87
2017-02-14T09:59:12.293Z,17.98
2017-02-14T10:00:12.823Z,17.58
2017-02-14T10:01:12.320Z,17.58
2017-02-14T10:02:12.884Z,17.61
2017-02-14T10:03:12.658Z,17.64
2017-02-14T10:04:11.803Z,17.69
2017-02-14T10:05:12.751Z,17.72
2017-02-14T10:06:11.839Z,17.75
2017-02-14T10:07:12.856Z,17.83
2017-02-14T10:08:12.465Z,17.82
2017-02-14T10:09:13.136Z,17.84
2017-02-14T10:10:12.718Z,17.91
2017-02-14T10:11:12.620Z,17.88
2017-02-14T10:12:11.562Z,17.89
2017-02-14T10:13:11.626Z,17.92
2017-02-14T10:14:10.470Z,17.92
2017-02-14T10:15:11.947Z,17.93
2017-02-14T10:16:10.145Z,17.94
2017-02-14T10:17:12.505Z,17.96
2017-02-14T10:18:11.748Z,17.97
2017-02-14T10:19:11.850Z,17.98
2017-02-14T10:20:11.842Z,17.97
2017-02-14T10:21:12.482Z,18.02
2017-02-14T10:22:13.283Z,17.99
2017-02-14T10:23:12.745Z,18.03
2017-02-14T10:24:11.931Z,18.00
2017-02-14T10:25:13.793Z,18.00
2017-02-14T10:26:13.685Z,18.00
2017-02-14T10:27:11.756Z,18.01
2017-02-14T10:28:12.090Z,18.01
2017-02-14T10:29:13.023Z,18.01
2017-02-14T10:30:12.032Z,18.02
2017-02-14T10:31:13.077Z,18.02
2017-02-14T10:32:13.044Z,18.03
2017-02-14T10:33:12.677Z,18.09
2017-02-14T10:34:12.555Z,18.03
2017-02-14T10:35:12.262Z,18.07
2017-02-14T10:36:09.941Z,18.02
2017-02-14T10:37:12.462Z,18.04
2017-02-14T10:38:14.333Z,18.04
2017-02-14T10:39:12.489Z,18.04
2017-02-14T10:40:12.457Z,18.04
2017-02-14T10:41:13.281Z,18.04
2017-02-14T10:42:13.577Z,18.04
2017-02-14T10:43:11.557Z,18.05
2017-02-14T10:44:13.070Z,18.05
2017-02-14T10:45:12.904Z,18.05
2017-02-14T10:46:13.983Z,18.05
2017-02-14T10:47:12.186Z,18.03
2017-02-14T10:48:13.886Z,18.02
2017-02-14T10:49:13.122Z,18.03
2017-02-14T10:50:12.698Z,18.03
2017-02-14T10:51:13.528Z,18.03
2017-02-14T10:52:12.356Z,18.03
2017-02-14T10:53:12.576Z,18.03
2017-02-14T10:54:10.534Z,18.02
2017-02-14T10:55:12.026Z,18.57
2017-02-14T10:56:12.057Z,18.63
2017-02-14T10:57:11.792Z,18.66
2017-02-14T10:58:12.099Z,18.67
2017-02-14T10:59:12.139Z,18.69
2017-02-14T11:00:12.278Z,18.34
2017-02-14T11:01:12.476Z,18.15
2017-02-14T11:02:12.685Z,18.10
2017-02-14T11:03:11.788Z,18.08
2017-02-14T11:04:12.627Z,18.15
2017-02-14T11:05:10.255Z,18.05
2017-02-14T11:06:12.943Z,18.59
2017-02-14T11:07:11.880Z,18.64
2017-02-14T11:08:12.104Z,18.66
2017-02-14T11:09:11.002Z,18.67
2017-02-14T11:10:12.273Z,18.69
2017-02-14T11:11:12.450Z,18.68
2017-02-14T11:12:15.580Z,18.32
2017-02-14T11:13:12.291Z,18.15
2017-02-14T11:14:12.503Z,18.10
2017-02-14T11:15:13.232Z,18.07
2017-02-14T11:16:10.775Z,18.05
2017-02-14T11:17:09.921Z,18.58
2017-02-14T11:18:12.462Z,18.63
2017-02-14T11:19:10.467Z,18.65
2017-02-14T11:20:12.288Z,18.18
2017-02-14T11:21:12.471Z,18.08
2017-02-14T11:22:12.548Z,18.06
2017-02-14T11:23:12.494Z,18.04
2017-02-14T11:24:13.162Z,18.04
2017-02-14T11:25:12.314Z,18.04
2017-02-14T11:26:13.133Z,18.03
2017-02-14T11:27:12.082Z,18.02
2017-02-14T11:28:10.287Z,18.01
2017-02-14T11:29:12.395Z,18.02
2017-02-14T11:30:12.996Z,18.07
2017-02-14T11:31:12.105Z,18.02
2017-02-14T11:32:12.286Z,18.02
2017-02-14T11:33:12.785Z,18.01
2017-02-14T11:34:11.868Z,18.01
2017-02-14T11:35:12.506Z,18.02
2017-02-14T11:36:12.564Z,18.01
2017-02-14T11:37:12.285Z,18.01
2017-02-14T11:38:10.977Z,18.01
2017-02-14T11:39:12.547Z,18.55
2017-02-14T11:40:10.608Z,18.60
2017-02-14T11:41:11.818Z,18.63
2017-02-14T11:42:12.807Z,18.63
2017-02-14T11:43:13.890Z,18.63
2017-02-14T11:44:12.001Z,18.65
2017-02-14T11:45:13.482Z,18.66
2017-02-14T11:46:12.636Z,18.66
2017-02-14T11:47:13.184Z,18.64
2017-02-14T11:48:12.904Z,18.66
2017-02-14T11:49:12.114Z,18.31
2017-02-14T11:50:12.715Z,18.11
2017-02-14T11:51:11.831Z,18.06
2017-02-14T11:52:11.985Z,18.03
2017-02-14T11:53:10.644Z,18.02
2017-02-14T11:54:10.620Z,18.01
2017-02-14T11:55:12.154Z,18.01
2017-02-14T11:56:13.167Z,18.02
2017-02-14T11:57:13.015Z,18.03
2017-02-14T11:58:12.737Z,18.55
2017-02-14T11:59:11.825Z,18.59
2017-02-14T12:00:12.319Z,18.62
2017-02-14T12:01:12.468Z,18.62
2017-02-14T12:02:13.328Z,18.62
2017-02-14T12:03:14.058Z,18.63
2017-02-14T12:04:11.907Z,18.10
2017-02-14T12:05:13.611Z,18.05
2017-02-14T12:06:11.746Z,18.03
2017-02-14T12:07:11.915Z,18.01
2017-02-14T12:08:13.700Z,18.01
2017-02-14T12:09:11.846Z,18.00
2017-02-14T12:10:12.579Z,18.01
2017-02-14T12:11:12.304Z,18.00
2017-02-14T12:12:12.477Z,18.00
2017-02-14T12:13:12.635Z,18.00
2017-02-14T12:14:11.648Z,18.00
2017-02-14T12:15:13.458Z,18.00
2017-02-14T12:16:12.693Z,18.00
2017-02-14T12:17:12.699Z,18.00
2017-02-14T12:18:12.057Z,18.00
2017-02-14T12:19:12.112Z,18.00
2017-02-14T12:20:13.267Z,18.01
2017-02-14T12:21:13.249Z,18.00
2017-02-14T12:22:12.250Z,17.99
2017-02-14T12:23:12.437Z,18.00
2017-02-14T12:24:13.209Z,18.00
2017-02-14T12:25:12.995Z,18.00
2017-02-14T12:26:13.603Z,17.99
2017-02-14T12:27:11.732Z,17.99
2017-02-14T12:28:11.863Z,18.00
2017-02-14T12:29:12.407Z,18.03
2017-02-14T12:30:12.399Z,17.98
2017-02-14T12:31:13.018Z,18.02
2017-02-14T12:32:11.849Z,18.52
2017-02-14T12:33:12.367Z,18.07
2017-02-14T12:34:12.475Z,18.02
2017-02-14T12:35:11.422Z,18.00
2017-02-14T12:36:13.077Z,18.04
2017-02-14T12:37:12.756Z,18.26
2017-02-14T12:38:13.207Z,18.05
2017-02-14T12:39:12.227Z,18.01
2017-02-14T12:40:15.876Z,18.00
2017-02-14T12:41:11.822Z,18.00
2017-02-14T12:42:13.415Z,17.99
2017-02-14T12:43:10.569Z,17.99
2017-02-14T12:44:11.876Z,18.00
2017-02-14T12:45:14.724Z,18.00
2017-02-14T12:46:11.779Z,17.99
2017-02-14T12:47:12.456Z,17.99
2017-02-14T12:48:13.144Z,17.99
2017-02-14T12:49:12.916Z,18.00
2017-02-14T12:50:10.599Z,17.99
2017-02-14T12:51:12.038Z,17.98
2017-02-14T12:52:13.928Z,17.98